Time;durP1;ratioP1;P1;durP2;ratioP2;P2;SDS_P1;SDS_P2;PMS_P1;PMS_P2;Temp;Humidity;BMP_temperature;BMP_pressure;BME280_temperature;BME280_humidity;BME280_pressure;Samples;Min_cycle;Max_cycle;Signal;HPM_P1;HPM_P2
2021/05/22 00:01:47;;;;;;;1.33;0.38;;;12.60;69.80;;;;;;5092244;28;20024;-69
2021/05/22 00:04:12;;;;;;;0.28;0.15;;;12.60;70.30;;;;;;5091583;28;20028;-69
2021/05/22 00:06:38;;;;;;;0.60;0.30;;;12.60;70.90;;;;;;5104719;28;20484;-70
2021/05/22 00:09:05;;;;;;;0.38;0.20;;;12.50;71.30;;;;;;5095044;28;20483;-69
2021/05/22 00:11:31;;;;;;;2.33;0.38;;;12.50;71.80;;;;;;5094264;28;20085;-70
2021/05/22 00:13:56;;;;;;;1.58;0.50;;;12.60;71.80;;;;;;5094816;28;20349;-69
2021/05/22 00:16:22;;;;;;;0.52;0.30;;;12.50;71.40;;;;;;5113094;28;20098;-69
2021/05/22 00:18:48;;;;;;;0.77;0.20;;;12.60;70.90;;;;;;5094225;28;20358;-69
2021/05/22 00:21:14;;;;;;;3.50;0.20;;;12.60;71.00;;;;;;5095028;28;20483;-69
2021/05/22 00:23:39;;;;;;;0.60;0.32;;;12.60;70.90;;;;;;5112417;28;20024;-69
2021/05/22 00:26:05;;;;;;;2.38;0.30;;;12.60;70.90;;;;;;5112966;28;20475;-69
2021/05/22 00:28:31;;;;;;;1.20;0.30;;;12.60;71.50;;;;;;5093964;28;20118;-73
2021/05/22 00:30:56;;;;;;;1.40;0.38;;;12.50;72.00;;;;;;5113312;28;20114;-69
2021/05/22 00:33:22;;;;;;;0.50;0.30;;;12.50;72.50;;;;;;5094650;28;20024;-69
2021/05/22 00:35:49;;;;;;;1.35;0.55;;;12.50;73.00;;;;;;5093965;28;20036;-69
2021/05/22 00:38:15;;;;;;;1.80;0.30;;;12.50;73.50;;;;;;5094517;28;20035;-69
2021/05/22 00:40:41;;;;;;;1.95;0.30;;;12.40;75.50;;;;;;5094012;28;20031;-69
2021/05/22 00:43:06;;;;;;;1.90;0.50;;;12.30;77.10;;;;;;5094567;28;20027;-69
2021/05/22 00:45:33;;;;;;;0.80;0.30;;;12.10;79.00;;;;;;5112206;28;20027;-70
2021/05/22 00:47:59;;;;;;;1.42;0.20;;;12.00;80.70;;;;;;5094543;28;20457;-69
2021/05/22 00:50:31;;;;;;;1.83;0.40;;;11.90;82.00;;;;;;5094434;28;20030;-70
2021/05/22 00:52:58;;;;;;;0.88;0.30;;;11.70;82.90;;;;;;5094180;28;20059;-70
2021/05/22 00:55:24;;;;;;;1.10;0.35;;;11.50;84.50;;;;;;5094582;28;20032;-70
2021/05/22 00:57:50;;;;;;;1.73;0.30;;;11.40;85.40;;;;;;5112040;28;20028;-69
2021/05/22 01:00:18;;;;;;;1.48;0.35;;;11.40;86.50;;;;;;5094635;28;20380;-69
2021/05/22 01:02:45;;;;;;;2.40;0.30;;;11.30;86.70;;;;;;5111947;28;20102;-69
2021/05/22 01:05:12;;;;;;;1.02;0.30;;;11.40;86.90;;;;;;5112330;28;20069;-70
2021/05/22 01:07:38;;;;;;;2.22;0.25;;;11.40;87.10;;;;;;5097493;28;20122;-69
2021/05/22 01:10:06;;;;;;;2.10;0.30;;;11.40;87.80;;;;;;5116393;28;20062;-69
2021/05/22 01:12:36;;;;;;;2.95;0.55;;;11.40;88.10;;;;;;5098121;28;20065;-69
2021/05/22 01:15:12;;;;;;;1.20;0.25;;;11.40;88.00;;;;;;5116319;28;20102;-69
2021/05/22 01:17:40;;;;;;;1.65;0.20;;;11.30;88.20;;;;;;5097413;28;20024;-69
2021/05/22 01:20:23;;;;;;;2.65;0.43;;;11.30;87.40;;;;;;5116260;28;20023;-69
2021/05/22 01:22:52;;;;;;;1.67;0.30;;;11.20;86.80;;;;;;5097293;28;20024;-69
2021/05/22 01:25:22;;;;;;;3.05;0.30;;;11.10;87.70;;;;;;5097750;28;20035;-69
2021/05/22 01:27:49;;;;;;;1.20;0.40;;;11.10;87.50;;;;;;5097163;28;20123;-69
2021/05/22 01:30:15;;;;;;;1.25;0.30;;;11.00;87.90;;;;;;5097951;28;20024;-69
2021/05/22 01:32:40;;;;;;;1.42;0.35;;;10.90;88.20;;;;;;5097130;28;20385;-70
2021/05/22 01:35:06;;;;;;;1.20;0.20;;;10.90;88.00;;;;;;5097503;28;20020;-69
2021/05/22 01:37:32;;;;;;;1.10;0.32;;;10.90;87.60;;;;;;5116214;28;20031;-69
2021/05/22 01:39:58;;;;;;;2.40;0.50;;;10.80;87.70;;;;;;5096947;28;20030;-69
2021/05/22 01:42:23;;;;;;;2.03;0.40;;;10.80;87.60;;;;;;5097517;28;20028;-69
2021/05/22 01:44:51;;;;;;;0.63;0.10;;;10.70;87.60;;;;;;5114848;28;20472;-69
2021/05/22 01:47:19;;;;;;;1.33;0.20;;;10.70;87.70;;;;;;5097301;28;20418;-69
2021/05/22 01:49:46;;;;;;;1.23;0.22;;;10.70;87.70;;;;;;5096726;28;20369;-69
2021/05/22 01:52:13;;;;;;;0.98;0.20;;;10.60;87.80;;;;;;5097356;28;20032;-69
2021/05/22 01:54:40;;;;;;;0.70;0.28;;;10.60;88.20;;;;;;5114890;28;20024;-69
2021/05/22 01:57:06;;;;;;;0.80;0.20;;;10.50;88.20;;;;;;5115500;28;20027;-69
2021/05/22 01:59:35;;;;;;;1.60;0.30;;;10.50;88.60;;;;;;5096898;28;20100;-69
2021/05/22 02:02:00;;;;;;;0.20;0.20;;;10.50;89.00;;;;;;5115136;28;20024;-69
2021/05/22 02:04:28;;;;;;;2.22;0.28;;;10.50;89.00;;;;;;5097026;28;20065;-69
2021/05/22 02:06:55;;;;;;;0.43;0.30;;;10.40;89.20;;;;;;5114723;28;20062;-69
2021/05/22 02:09:23;;;;;;;3.10;1.00;;;10.30;89.70;;;;;;5115210;28;20024;-69
2021/05/22 02:11:53;;;;;;;0.30;0.30;;;10.20;89.90;;;;;;5114887;28;20028;-69
2021/05/22 02:14:32;;;;;;;0.10;0.10;;;10.20;90.10;;;;;;5096981;28;20031;-69
2021/05/22 02:16:58;;;;;;;0.40;0.17;;;10.10;90.20;;;;;;5113830;28;20063;-69
2021/05/22 02:19:27;;;;;;;5.93;0.40;;;10.10;90.10;;;;;;5096808;28;20482;-69
2021/05/22 02:21:55;;;;;;;0.43;0.13;;;10.10;90.20;;;;;;5096197;28;20455;-69
2021/05/22 02:24:25;;;;;;;1.95;0.32;;;10.00;90.10;;;;;;5096684;28;20030;-69
2021/05/22 02:26:57;;;;;;;2.03;0.35;;;10.10;90.20;;;;;;5095973;28;20387;-69
2021/05/22 02:29:24;;;;;;;3.30;0.28;;;10.00;90.00;;;;;;5114957;28;20043;-69
2021/05/22 02:31:50;;;;;;;4.68;0.50;;;10.10;90.00;;;;;;5095958;28;20059;-69
2021/05/22 02:34:31;;;;;;;1.10;0.38;;;10.00;89.90;;;;;;5096499;28;20050;-69
2021/05/22 02:36:58;;;;;;;0.95;0.30;;;10.00;89.60;;;;;;5095916;28;20036;-69
2021/05/22 02:39:26;;;;;;;1.23;0.40;;;10.00;89.80;;;;;;5114370;28;20476;-69
2021/05/22 02:41:52;;;;;;;0.68;0.30;;;10.00;89.70;;;;;;5095819;28;20031;-69
2021/05/22 02:44:20;;;;;;;2.33;0.55;;;10.00;89.90;;;;;;5096471;28;20076;-69
2021/05/22 02:46:49;;;;;;;0.50;0.35;;;9.90;90.00;;;;;;5113556;28;20444;-69
2021/05/22 02:49:18;;;;;;;1.05;0.40;;;10.00;89.80;;;;;;5096290;28;20109;-69
2021/05/22 02:51:47;;;;;;;1.23;0.70;;;9.90;89.90;;;;;;5095282;28;20035;-69
2021/05/22 02:54:14;;;;;;;1.00;0.38;;;9.90;90.00;;;;;;5096135;28;20058;-69
2021/05/22 02:56:41;;;;;;;0.50;0.30;;;9.90;90.00;;;;;;5095489;28;20111;-73
2021/05/22 02:59:08;;;;;;;1.02;0.50;;;9.90;89.80;;;;;;5114331;28;20058;-69
2021/05/22 03:01:35;;;;;;;1.60;0.50;;;9.90;89.90;;;;;;5096059;28;20379;-69
2021/05/22 03:04:01;;;;;;;3.20;0.50;;;9.90;90.00;;;;;;5095302;28;20027;-69
2021/05/22 03:06:27;;;;;;;1.35;0.40;;;9.90;90.00;;;;;;5095710;28;20052;-69
2021/05/22 03:08:52;;;;;;;1.20;0.40;;;9.90;90.00;;;;;;5095199;28;20046;-69
2021/05/22 03:11:20;;;;;;;3.22;0.40;;;10.00;89.90;;;;;;5114114;28;20372;-69
2021/05/22 03:13:47;;;;;;;1.77;0.40;;;9.90;90.00;;;;;;5095198;28;20028;-69
2021/05/22 03:16:13;;;;;;;3.00;0.50;;;10.00;89.80;;;;;;5113963;28;20016;-69
2021/05/22 03:18:38;;;;;;;1.98;0.50;;;10.00;89.90;;;;;;5113937;28;20059;-69
2021/05/22 03:21:04;;;;;;;1.13;0.40;;;10.00;89.70;;;;;;5095007;28;20100;-69
2021/05/22 03:23:30;;;;;;;1.63;0.50;;;10.00;89.70;;;;;;5095567;28;20036;-69
2021/05/22 03:25:56;;;;;;;1.95;0.40;;;10.00;89.40;;;;;;5094957;28;20034;-69
2021/05/22 03:28:22;;;;;;;0.95;0.20;;;10.00;89.30;;;;;;5094623;28;20028;-69
2021/05/22 03:30:48;;;;;;;1.65;0.22;;;10.00;89.10;;;;;;5113135;28;20034;-69
2021/05/22 03:33:13;;;;;;;0.98;0.20;;;10.00;89.00;;;;;;5113650;28;20487;-69
2021/05/22 03:35:39;;;;;;;2.03;0.25;;;10.00;88.70;;;;;;5113272;28;20028;-69
2021/05/22 03:38:05;;;;;;;1.02;0.40;;;10.00;88.80;;;;;;5094739;28;20487;-69
2021/05/22 03:40:30;;;;;;;2.63;0.45;;;10.00;88.30;;;;;;5095058;28;20020;-69
2021/05/22 03:42:56;;;;;;;1.98;0.30;;;10.00;88.30;;;;;;5094350;28;20031;-69
2021/05/22 03:45:22;;;;;;;1.95;0.50;;;10.00;88.50;;;;;;5095216;28;20023;-69
2021/05/22 03:47:48;;;;;;;1.02;0.30;;;10.00;88.40;;;;;;5112818;28;20476;-69
2021/05/22 03:50:13;;;;;;;2.13;0.38;;;10.00;88.40;;;;;;5113434;28;20102;-69
2021/05/22 03:52:39;;;;;;;1.02;0.30;;;10.10;88.00;;;;;;5113339;28;20141;-69
2021/05/22 03:55:08;;;;;;;1.42;0.55;;;10.10;88.20;;;;;;5094410;28;20365;-69
2021/05/22 03:57:34;;;;;;;0.88;0.30;;;10.20;88.20;;;;;;5095089;28;20122;-69
2021/05/22 03:59:59;;;;;;;1.48;0.30;;;10.20;88.20;;;;;;5094445;28;20114;-69
2021/05/22 04:02:25;;;;;;;2.92;0.50;;;10.20;88.40;;;;;;5113193;28;20464;-69
2021/05/22 04:04:50;;;;;;;1.20;0.30;;;10.20;88.30;;;;;;5094514;28;20034;-69
2021/05/22 04:07:16;;;;;;;0.85;0.28;;;10.10;88.20;;;;;;5094241;28;20044;-69
2021/05/22 04:09:42;;;;;;;4.47;0.32;;;10.10;88.40;;;;;;5113071;28;20034;-69
2021/05/22 04:12:08;;;;;;;1.23;0.30;;;10.10;88.00;;;;;;5112136;28;20027;-69
2021/05/22 04:14:33;;;;;;;0.68;0.30;;;10.10;87.90;;;;;;5094869;28;20110;-69
2021/05/22 04:16:59;;;;;;;0.80;0.30;;;10.10;88.00;;;;;;5112450;28;20377;-69
2021/05/22 04:19:24;;;;;;;0.80;0.50;;;10.10;88.40;;;;;;5112998;28;20457;-69
2021/05/22 04:21:50;;;;;;;2.00;0.40;;;10.10;87.90;;;;;;5094158;28;20031;-69
2021/05/22 04:24:16;;;;;;;1.80;0.30;;;10.10;87.70;;;;;;5112926;28;20106;-68
2021/05/22 04:26:42;;;;;;;0.47;0.40;;;10.00;87.80;;;;;;5094577;28;20536;-69
2021/05/22 04:29:07;;;;;;;2.55;0.40;;;10.00;87.40;;;;;;5093918;28;20019;-69
2021/05/22 04:31:33;;;;;;;1.02;0.40;;;10.00;87.50;;;;;;5112895;28;20027;-69
2021/05/22 04:33:58;;;;;;;1.02;0.22;;;10.00;86.90;;;;;;5093940;28;20023;-69
2021/05/22 04:36:24;;;;;;;2.13;0.38;;;10.00;86.90;;;;;;5094369;28;20471;-69
2021/05/22 04:38:51;;;;;;;0.47;0.20;;;10.10;87.00;;;;;;5094138;28;20085;-69
2021/05/22 04:41:17;;;;;;;2.35;0.40;;;10.00;87.00;;;;;;5098573;28;20024;-69
2021/05/22 04:43:43;;;;;;;1.60;0.40;;;10.10;87.00;;;;;;5098761;28;20035;-69
2021/05/22 04:46:08;;;;;;;1.85;0.22;;;10.10;86.60;;;;;;5116292;28;20031;-69
2021/05/22 04:48:34;;;;;;;0.95;0.28;;;10.00;87.10;;;;;;5098648;28;20071;-69
2021/05/22 04:50:59;;;;;;;2.78;0.50;;;10.10;87.50;;;;;;5097653;28;20543;-68
2021/05/22 04:53:25;;;;;;;1.45;0.45;;;10.10;87.20;;;;;;5116757;28;20028;-69
2021/05/22 04:55:51;;;;;;;1.00;0.50;;;10.10;87.00;;;;;;5097929;28;20119;-69
2021/05/22 04:58:17;;;;;;;0.65;0.32;;;10.20;87.00;;;;;;5098282;28;20024;-69
2021/05/22 05:00:42;;;;;;;1.08;0.20;;;10.20;87.00;;;;;;5116625;28;20023;-69
2021/05/22 05:03:08;;;;;;;3.03;0.40;;;10.20;87.00;;;;;;5115971;28;20431;-69
2021/05/22 05:05:33;;;;;;;1.60;0.40;;;10.20;87.20;;;;;;5097778;28;20052;-69
2021/05/22 05:07:59;;;;;;;1.92;0.73;;;10.20;86.70;;;;;;5097602;28;20039;-69
2021/05/22 05:10:25;;;;;;;1.60;0.40;;;10.20;86.90;;;;;;5116100;28;20468;-69
2021/05/22 05:12:52;;;;;;;1.73;0.40;;;10.30;87.00;;;;;;5097432;28;20059;-69
2021/05/22 05:15:18;;;;;;;1.98;0.40;;;10.30;87.00;;;;;;5098064;28;20031;-69
2021/05/22 05:17:44;;;;;;;1.13;0.50;;;10.30;87.20;;;;;;5097972;28;20115;-69
2021/05/22 05:20:10;;;;;;;0.98;0.47;;;10.40;86.60;;;;;;5097338;28;20381;-69
2021/05/22 05:22:36;;;;;;;2.85;0.30;;;10.40;86.70;;;;;;5097934;28;20406;-69
2021/05/22 05:25:02;;;;;;;1.60;0.70;;;10.40;86.00;;;;;;5097281;28;20072;-69
2021/05/22 05:27:27;;;;;;;3.72;0.40;;;10.40;87.00;;;;;;5115997;28;20519;-69
2021/05/22 05:29:53;;;;;;;2.45;0.40;;;10.50;86.10;;;;;;5097127;28;20050;-69
2021/05/22 05:32:18;;;;;;;31.58;13.15;;;10.50;86.60;;;;;;5097722;28;20028;-68
2021/05/22 05:34:44;;;;;;;21.27;8.52;;;10.50;86.10;;;;;;5115920;28;20486;-69
2021/05/22 05:37:10;;;;;;;5.68;2.67;;;10.60;86.00;;;;;;5114911;28;20391;-69
2021/05/22 05:39:37;;;;;;;4.05;0.80;;;10.60;85.70;;;;;;5115882;28;20054;-69
2021/05/22 05:42:03;;;;;;;8.63;3.28;;;10.70;85.00;;;;;;5096917;28;20062;-69
2021/05/22 05:44:29;;;;;;;6.53;2.25;;;10.70;84.70;;;;;;5115768;28;20048;-69
2021/05/22 05:46:55;;;;;;;10.02;4.07;;;10.80;84.80;;;;;;5096842;28;20031;-69
2021/05/22 05:49:20;;;;;;;3.30;0.52;;;10.80;84.70;;;;;;5115419;28;20110;-69
2021/05/22 05:51:46;;;;;;;1.70;0.50;;;10.90;83.60;;;;;;5114771;28;20110;-69
2021/05/22 05:54:12;;;;;;;3.47;0.63;;;11.00;84.30;;;;;;5114944;28;20438;-69
2021/05/22 05:56:37;;;;;;;17.58;6.95;;;11.00;83.10;;;;;;5097236;28;20027;-69
2021/05/22 05:59:03;;;;;;;5.18;1.55;;;11.10;82.40;;;;;;5114591;28;20411;-69
2021/05/22 06:01:30;;;;;;;4.88;1.08;;;11.10;82.40;;;;;;5115131;28;20099;-69
2021/05/22 06:03:56;;;;;;;4.07;1.65;;;11.10;82.00;;;;;;5114766;28;20020;-69
2021/05/22 06:06:22;;;;;;;6.90;3.35;;;11.20;82.00;;;;;;5093226;28;20055;-69
2021/05/22 06:08:48;;;;;;;9.70;3.40;;;11.20;81.60;;;;;;5094813;28;20118;-69
2021/05/22 06:11:14;;;;;;;3.22;0.50;;;11.20;81.30;;;;;;5093987;28;20031;-69
2021/05/22 06:13:40;;;;;;;3.13;0.52;;;11.30;80.20;;;;;;5093570;28;20024;-69
2021/05/22 06:18:38;;;;;;;2.30;0.47;;;11.40;80.90;;;;;;5094862;28;20039;-69
2021/05/22 06:21:06;;;;;;;38.78;17.02;;;11.40;80.30;;;;;;5094120;28;20047;-69
2021/05/22 06:23:32;;;;;;;12.73;3.95;;;11.40;80.60;;;;;;5094655;28;20020;-69
2021/05/22 06:25:59;;;;;;;3.53;0.95;;;11.50;79.90;;;;;;5092714;28;20476;-69
2021/05/22 06:28:26;;;;;;;2.58;0.70;;;11.50;79.90;;;;;;5094457;28;20032;-69
2021/05/22 06:30:54;;;;;;;2.53;0.60;;;11.50;78.50;;;;;;5093955;28;20107;-72
2021/05/22 06:33:20;;;;;;;3.47;0.70;;;11.60;77.80;;;;;;5093329;28;20119;-69
2021/05/22 06:35:46;;;;;;;0.30;0.30;;;11.60;78.10;;;;;;5093097;28;20450;-69
2021/05/22 06:38:11;;;;;;;2.53;0.50;;;11.60;78.10;;;;;;5092564;28;20031;-69
2021/05/22 06:40:37;;;;;;;3.20;0.43;;;11.60;77.00;;;;;;5094021;28;20452;-69
2021/05/22 06:43:03;;;;;;;5.80;1.02;;;11.70;76.30;;;;;;5092415;28;20024;-69
2021/05/22 06:45:38;;;;;;;3.80;0.50;;;11.70;75.80;;;;;;5092944;28;20020;-69
2021/05/22 06:48:06;;;;;;;1.38;0.40;;;11.80;76.90;;;;;;5092319;28;20075;-69
2021/05/22 06:50:32;;;;;;;3.88;0.50;;;11.90;76.60;;;;;;5092825;28;20533;-69
2021/05/22 06:52:57;;;;;;;2.20;0.68;;;11.90;76.90;;;;;;5093531;28;20103;-69
2021/05/22 06:55:23;;;;;;;2.55;0.68;;;12.00;76.20;;;;;;5093035;28;20028;-69
2021/05/22 06:57:49;;;;;;;2.58;0.50;;;12.00;75.40;;;;;;5092734;28;20036;-69
2021/05/22 07:00:15;;;;;;;1.48;0.65;;;12.10;74.00;;;;;;5093077;28;20024;-69
2021/05/22 07:02:40;;;;;;;2.75;0.30;;;12.10;74.20;;;;;;5093704;28;20465;-69
2021/05/22 07:05:06;;;;;;;3.55;0.50;;;12.10;73.50;;;;;;5091826;28;20020;-70
2021/05/22 07:07:32;;;;;;;3.22;0.50;;;12.20;74.00;;;;;;5095868;28;20035;-69
2021/05/22 07:09:58;;;;;;;3.08;0.50;;;12.30;72.70;;;;;;5095269;28;20475;-69
2021/05/22 07:12:23;;;;;;;5.20;0.52;;;12.30;73.50;;;;;;5114062;28;20034;-69
2021/05/22 07:14:49;;;;;;;5.28;1.25;;;12.40;72.10;;;;;;5095880;28;20436;-69
2021/05/22 07:17:15;;;;;;;3.03;0.57;;;12.50;72.10;;;;;;5113143;28;20068;-69
2021/05/22 07:19:40;;;;;;;2.72;0.40;;;12.50;72.90;;;;;;5095696;28;20024;-69
2021/05/22 07:22:06;;;;;;;3.88;0.40;;;12.70;72.60;;;;;;5095166;28;20028;-69
2021/05/22 07:24:31;;;;;;;3.53;0.70;;;12.80;73.10;;;;;;5113907;28;20031;-69
2021/05/22 07:26:57;;;;;;;5.25;0.63;;;13.00;72.00;;;;;;5094905;28;20020;-70
2021/05/22 07:29:24;;;;;;;1.73;0.45;;;13.00;70.40;;;;;;5113772;28;20023;-70
2021/05/22 07:31:51;;;;;;;2.25;0.50;;;13.10;69.30;;;;;;5095483;28;20118;-69
2021/05/22 07:34:17;;;;;;;2.17;0.45;;;13.20;67.90;;;;;;5094506;28;20077;-69
2021/05/22 07:36:43;;;;;;;3.28;0.50;;;13.20;68.30;;;;;;5114160;28;20027;-69
2021/05/22 07:39:12;;;;;;;2.85;0.60;;;13.30;68.10;;;;;;5113014;28;20107;-69
2021/05/22 07:41:38;;;;;;;3.42;0.60;;;13.20;68.80;;;;;;5095248;28;20054;-70
2021/05/22 07:44:04;;;;;;;2.05;0.70;;;13.30;68.30;;;;;;5094596;28;20063;-69
2021/05/22 07:46:30;;;;;;;1.10;0.32;;;13.40;67.40;;;;;;5113445;28;20028;-71
2021/05/22 07:48:55;;;;;;;2.50;0.40;;;13.50;66.70;;;;;;5113338;28;20417;-69
2021/05/22 07:51:21;;;;;;;2.80;0.50;;;13.50;65.60;;;;;;5112744;28;20027;-69
2021/05/22 07:53:47;;;;;;;2.70;0.60;;;13.60;67.60;;;;;;5095137;28;20028;-69
2021/05/22 07:56:13;;;;;;;3.75;0.50;;;13.50;67.30;;;;;;5112430;28;20076;-70
2021/05/22 07:58:38;;;;;;;3.28;0.63;;;13.40;68.20;;;;;;5095026;28;20126;-69
2021/05/22 08:01:04;;;;;;;2.88;0.65;;;13.40;66.70;;;;;;5112673;28;20034;-70
2021/05/22 08:03:30;;;;;;;2.63;0.57;;;13.30;63.20;;;;;;5094860;28;20032;-69
2021/05/22 08:05:55;;;;;;;1.92;0.35;;;13.20;60.10;;;;;;5113011;28;20039;-69
2021/05/22 08:08:21;;;;;;;3.03;0.60;;;13.20;58.20;;;;;;5094177;28;20396;-69
2021/05/22 08:10:47;;;;;;;3.42;0.40;;;13.10;55.70;;;;;;5094893;28;20055;-69
2021/05/22 08:13:13;;;;;;;3.72;0.45;;;13.10;56.50;;;;;;5094297;28;20032;-69
2021/05/22 08:15:40;;;;;;;3.15;0.55;;;13.10;56.90;;;;;;5094547;28;20023;-69
2021/05/22 08:18:06;;;;;;;2.90;0.30;;;13.20;55.20;;;;;;5112639;28;20058;-69
2021/05/22 08:20:32;;;;;;;4.45;0.40;;;13.20;54.70;;;;;;5112957;28;20051;-69
2021/05/22 08:22:57;;;;;;;4.55;0.80;;;13.20;56.10;;;;;;5094745;28;20474;-69
2021/05/22 08:25:23;;;;;;;2.78;0.60;;;13.20;56.50;;;;;;5094145;28;20055;-69
2021/05/22 08:27:51;;;;;;;2.67;0.40;;;13.30;55.90;;;;;;5094632;28;20036;-69
2021/05/22 08:30:17;;;;;;;11.60;5.90;;;13.30;56.90;;;;;;5094025;28;20373;-69
2021/05/22 08:32:42;;;;;;;6.97;2.45;;;13.40;56.30;;;;;;5094532;28;20114;-69
2021/05/22 08:35:09;;;;;;;8.50;3.72;;;13.40;55.50;;;;;;5093896;28;20115;-69
2021/05/22 08:37:35;;;;;;;4.03;0.60;;;13.40;56.80;;;;;;5094556;28;20114;-69
2021/05/22 08:40:00;;;;;;;3.05;0.43;;;13.50;56.40;;;;;;5093950;28;20169;-70
2021/05/22 08:42:29;;;;;;;2.35;0.43;;;13.50;56.90;;;;;;5094515;28;20023;-69
2021/05/22 08:45:14;;;;;;;2.95;0.38;;;13.50;57.80;;;;;;5094513;28;20115;-69
2021/05/22 08:47:40;;;;;;;0.73;0.30;;;13.60;57.00;;;;;;5112719;28;20111;-69
2021/05/22 08:50:09;;;;;;;2.72;0.30;;;13.50;57.40;;;;;;5111781;28;20046;-69
2021/05/22 08:52:35;;;;;;;2.97;0.38;;;13.60;57.70;;;;;;5094356;28;20020;-69
2021/05/22 08:55:01;;;;;;;3.78;0.50;;;13.60;57.00;;;;;;5112589;28;20023;-72
2021/05/22 08:57:27;;;;;;;2.65;0.40;;;13.60;57.00;;;;;;5094091;28;20035;-69
2021/05/22 08:59:52;;;;;;;3.47;0.30;;;13.60;56.80;;;;;;5094653;28;20076;-69
2021/05/22 09:02:23;;;;;;;3.88;0.63;;;13.70;56.80;;;;;;5093839;28;20024;-69
2021/05/22 09:05:28;;;;;;;2.87;0.40;;;13.70;56.80;;;;;;5112753;28;20024;-69
2021/05/22 09:07:56;;;;;;;6.35;0.80;;;13.70;56.60;;;;;;5112549;28;20044;-69
2021/05/22 09:10:26;;;;;;;1.95;0.30;;;13.70;57.30;;;;;;5093270;28;20035;-70
2021/05/22 09:12:54;;;;;;;1.98;0.47;;;13.70;57.10;;;;;;5094336;28;20529;-69
2021/05/22 09:15:22;;;;;;;2.90;0.20;;;13.80;56.70;;;;;;5093594;28;20051;-70
2021/05/22 09:18:00;;;;;;;3.50;0.60;;;13.90;57.00;;;;;;5094179;28;20035;-70
2021/05/22 09:20:32;;;;;;;2.60;0.43;;;13.90;57.00;;;;;;5093596;28;20072;-70
2021/05/22 09:23:04;;;;;;;0.70;0.40;;;13.90;56.60;;;;;;5112378;28;20020;-70
2021/05/22 09:25:32;;;;;;;1.80;0.32;;;13.90;56.00;;;;;;5094108;28;20474;-70
2021/05/22 09:27:58;;;;;;;1.23;0.40;;;13.90;56.40;;;;;;5097021;28;20126;-70
2021/05/22 09:30:26;;;;;;;2.30;0.65;;;13.90;56.90;;;;;;5097096;28;20114;-70
2021/05/22 09:32:53;;;;;;;1.70;0.38;;;13.90;56.50;;;;;;5097693;28;20027;-70
2021/05/22 09:35:20;;;;;;;2.72;0.40;;;13.90;56.20;;;;;;5115219;28;20031;-70
2021/05/22 09:37:52;;;;;;;2.60;0.40;;;13.90;55.60;;;;;;5097723;28;20065;-70
2021/05/22 09:40:20;;;;;;;;;;;14.00;55.00;;;;;;5097417;28;20436;-70
2021/05/22 09:42:46;;;;;;;1.60;0.40;;;14.10;54.00;;;;;;5097703;28;19910;-70
2021/05/22 09:45:37;;;;;;;2.28;0.35;;;14.20;53.10;;;;;;5114830;28;20108;-70
2021/05/22 09:48:16;;;;;;;3.67;0.60;;;14.40;52.30;;;;;;5085409;28;20043;-70
2021/05/22 09:50:52;;;;;;;1.38;0.40;;;14.50;50.30;;;;;;5097715;28;20055;-70
2021/05/22 09:53:27;;;;;;;3.13;0.73;;;14.50;50.70;;;;;;5114953;28;20024;-70
2021/05/22 09:56:15;;;;;;;2.10;0.35;;;14.70;49.50;;;;;;5097240;28;20028;-70
2021/05/22 09:58:50;;;;;;;0.95;0.30;;;15.00;49.00;;;;;;5097200;28;20035;-70
2021/05/22 10:01:18;;;;;;;3.08;0.30;;;15.10;49.10;;;;;;5096631;28;20024;-70
2021/05/22 10:03:44;;;;;;;1.38;0.50;;;15.20;48.40;;;;;;5096758;28;20049;-70
2021/05/22 10:06:11;;;;;;;4.43;0.55;;;15.30;49.10;;;;;;5096135;28;20055;-70
2021/05/22 10:08:38;;;;;;;2.08;0.40;;;15.40;49.00;;;;;;5097230;28;20134;-70
2021/05/22 10:11:04;;;;;;;4.75;0.70;;;15.40;47.20;;;;;;5097034;28;20028;-70
2021/05/22 10:13:30;;;;;;;3.45;0.30;;;15.40;47.90;;;;;;5096329;28;20368;-70
2021/05/22 10:15:58;;;;;;;4.05;0.38;;;15.50;48.30;;;;;;5115273;28;20035;-70
2021/05/22 10:18:25;;;;;;;0.38;0.30;;;15.50;48.40;;;;;;5096200;28;20027;-70
2021/05/22 10:20:53;;;;;;;4.90;0.57;;;15.60;49.70;;;;;;5096735;28;20020;-70
2021/05/22 10:23:19;;;;;;;2.53;0.22;;;15.70;47.40;;;;;;5096159;28;20031;-70
2021/05/22 10:25:55;;;;;;;3.22;0.57;;;15.70;48.10;;;;;;5096365;28;20028;-70
2021/05/22 10:28:22;;;;;;;3.42;0.60;;;15.80;47.30;;;;;;5096037;28;20364;-70
2021/05/22 10:30:48;;;;;;;4.40;0.30;;;15.90;47.30;;;;;;5115235;28;20536;-71
2021/05/22 10:33:15;;;;;;;1.23;0.35;;;15.80;47.10;;;;;;5095951;28;20059;-69
2021/05/22 10:35:48;;;;;;;1.23;0.43;;;15.80;48.30;;;;;;5096523;28;20063;-69
2021/05/22 10:38:32;;;;;;;1.75;0.22;;;15.90;47.40;;;;;;5095716;28;20092;-69
2021/05/22 10:40:58;;;;;;;1.92;0.28;;;15.80;47.10;;;;;;5096627;28;20077;-69
2021/05/22 10:43:40;;;;;;;1.25;0.50;;;15.90;46.60;;;;;;5095779;28;20127;-69
2021/05/22 10:46:06;;;;;;;;;;;16.00;47.00;;;;;;5096365;28;20031;-69
2021/05/22 10:48:31;;;;;;;2.33;0.32;;;16.10;47.80;;;;;;5095615;28;19911;-69
2021/05/22 10:50:57;;;;;;;1.38;0.10;;;15.90;46.60;;;;;;5114800;28;20031;-69
2021/05/22 10:53:34;;;;;;;1.45;0.15;;;15.90;44.90;;;;;;5095626;28;20031;-69
2021/05/22 10:56:14;;;;;;;1.23;0.30;;;15.80;44.60;;;;;;5096166;28;20114;-69
2021/05/22 10:58:58;;;;;;;5.80;0.85;;;15.80;44.40;;;;;;5096528;28;20437;-69
2021/05/22 11:01:28;;;;;;;2.05;0.30;;;15.80;43.10;;;;;;5113665;28;20059;-71
2021/05/22 11:04:07;;;;;;;2.33;0.47;;;15.90;44.20;;;;;;5114480;28;20050;-69
2021/05/22 11:06:46;;;;;;;0.88;0.25;;;15.90;44.00;;;;;;5113122;28;20508;-69
2021/05/22 11:12:31;;;;;;;5.38;0.55;;;16.20;44.50;;;;;;5114153;28;20034;-69
2021/05/22 11:14:57;;;;;;;3.13;0.20;;;16.30;44.00;;;;;;5095658;28;20119;-69
2021/05/22 11:17:22;;;;;;;3.78;0.30;;;16.30;45.40;;;;;;5113419;28;20062;-69
2021/05/22 11:20:04;;;;;;;2.08;0.20;;;16.30;43.40;;;;;;5095699;28;20055;-69
2021/05/22 11:22:48;;;;;;;1.25;0.40;;;16.30;42.80;;;;;;5095128;28;20098;-69
2021/05/22 11:25:17;;;;;;;2.70;0.30;;;16.40;43.10;;;;;;5094718;28;20074;-69
2021/05/22 11:27:53;;;;;;;0.90;0.20;;;16.40;44.30;;;;;;5113788;28;20074;-69
2021/05/22 11:30:26;;;;;;;2.72;0.30;;;16.40;43.90;;;;;;5094979;28;20030;-71
2021/05/22 11:32:56;;;;;;;1.45;0.22;;;16.40;42.80;;;;;;5095659;28;20027;-69
2021/05/22 11:35:27;;;;;;;1.60;0.20;;;16.60;43.00;;;;;;5094807;28;20081;-69
2021/05/22 11:37:58;;;;;;;1.70;0.20;;;16.80;43.30;;;;;;5095391;28;20070;-69
2021/05/22 11:40:39;;;;;;;1.70;0.47;;;16.80;41.70;;;;;;5094670;28;20084;-69
2021/05/22 11:43:21;;;;;;;0.55;0.20;;;16.70;42.30;;;;;;5095285;28;20032;-69
2021/05/22 11:45:50;;;;;;;2.70;0.43;;;16.80;42.60;;;;;;5113682;28;20094;-69
2021/05/22 11:48:50;;;;;;;5.03;0.30;;;17.00;42.90;;;;;;5094576;28;20119;-69
2021/05/22 11:51:28;;;;;;;2.33;0.30;;;17.00;42.00;;;;;;5057298;28;20552;-69
2021/05/22 11:54:00;;;;;;;2.70;0.30;;;16.90;43.30;;;;;;5095132;28;20031;-69
2021/05/22 11:56:26;;;;;;;0.93;0.20;;;16.90;43.40;;;;;;5094570;28;20479;-69
2021/05/22 11:58:54;;;;;;;1.02;0.10;;;16.80;43.50;;;;;;5113348;28;20032;-69
2021/05/22 12:01:31;;;;;;;1.08;0.13;;;16.90;44.10;;;;;;5094456;28;20066;-69
2021/05/22 12:04:03;;;;;;;1.20;0.30;;;16.80;44.10;;;;;;5095132;28;20024;-69
2021/05/22 12:06:36;;;;;;;3.00;0.20;;;16.80;45.00;;;;;;5090721;28;20052;-69
2021/05/22 12:09:25;;;;;;;2.30;0.40;;;16.90;45.40;;;;;;5091723;28;20093;-69
2021/05/22 12:12:06;;;;;;;1.67;0.28;;;17.00;45.60;;;;;;5091613;28;20505;-69
2021/05/22 12:14:39;;;;;;;1.20;0.28;;;17.40;42.50;;;;;;5090979;28;20256;-69
2021/05/22 12:17:06;;;;;;;2.35;0.28;;;17.50;42.20;;;;;;5091453;28;20024;-69
2021/05/22 12:19:38;;;;;;;0.82;0.10;;;17.60;41.30;;;;;;5092116;28;20468;-69
2021/05/22 12:22:04;;;;;;;1.85;0.20;;;17.50;41.00;;;;;;5092662;28;20024;-69
2021/05/22 12:24:30;;;;;;;2.40;0.30;;;17.50;40.90;;;;;;5092057;28;20098;-69
2021/05/22 12:26:57;;;;;;;2.25;0.25;;;17.60;41.80;;;;;;5091342;28;20024;-69
2021/05/22 12:29:28;;;;;;;1.95;0.20;;;17.50;41.60;;;;;;5090713;28;20043;-69
2021/05/22 12:32:00;;;;;;;1.65;0.20;;;17.50;43.80;;;;;;5091536;28;20032;-69
2021/05/22 12:34:29;;;;;;;;;;;17.20;45.50;;;;;;5092394;28;20024;-70
2021/05/22 12:36:59;;;;;;;1.40;0.10;;;17.20;47.40;;;;;;5091063;28;19908;-69
2021/05/22 12:39:33;;;;;;;0.55;0.10;;;17.20;46.90;;;;;;5091886;28;20031;-69
2021/05/22 12:41:59;;;;;;;1.83;0.10;;;17.30;47.40;;;;;;5091352;28;20028;-69
2021/05/22 12:44:25;;;;;;;5.68;0.55;;;17.50;47.00;;;;;;5091876;28;20445;-69
2021/05/22 12:46:56;;;;;;;0.57;0.10;;;17.70;46.10;;;;;;5092500;28;20054;-69
2021/05/22 12:49:22;;;;;;;0.45;0.10;;;18.00;45.70;;;;;;5091804;28;20032;-70
2021/05/22 12:52:02;;;;;;;0.30;0.10;;;18.30;43.90;;;;;;5092109;28;20469;-70
2021/05/22 12:54:38;;;;;;;0.47;0.17;;;18.20;45.40;;;;;;5090586;28;20032;-69
2021/05/22 12:57:05;;;;;;;0.73;0.20;;;18.30;46.00;;;;;;5091277;28;20021;-69
2021/05/22 12:59:32;;;;;;;2.45;0.30;;;18.50;45.40;;;;;;5090449;28;20052;-70